sensor_id;sensor_type;location;lat;lon;timestamp;P1;durP1;ratioP1;P2;durP2;ratioP2
53833;SDS011;39735;51.432;5.482;2022-07-29T00:01:17;20.95;;;1.90;;
53833;SDS011;39735;51.432;5.482;2022-07-29T00:03:44;8.70;;;1.25;;
53833;SDS011;39735;51.432;5.482;2022-07-29T00:06:09;29.88;;;2.10;;
53833;SDS011;39735;51.432;5.482;2022-07-29T00:08:36;5.65;;;1.38;;
53833;SDS011;39735;51.432;5.482;2022-07-29T00:11:01;7.95;;;1.48;;
53833;SDS011;39735;51.432;5.482;2022-07-29T00:13:27;4.10;;;1.23;;
53833;SDS011;39735;51.432;5.482;2022-07-29T00:15:52;5.57;;;1.63;;
53833;SDS011;39735;51.432;5.482;2022-07-29T00:18:17;8.15;;;2.40;;
53833;SDS011;39735;51.432;5.482;2022-07-29T00:20:43;10.23;;;1.10;;
53833;SDS011;39735;51.432;5.482;2022-07-29T00:23:08;11.05;;;1.48;;
53833;SDS011;39735;51.432;5.482;2022-07-29T00:25:33;22.45;;;1.35;;
53833;SDS011;39735;51.432;5.482;2022-07-29T00:27:59;25.23;;;2.08;;
53833;SDS011;39735;51.432;5.482;2022-07-29T00:30:24;10.18;;;2.83;;
53833;SDS011;39735;51.432;5.482;2022-07-29T00:32:49;5.07;;;1.80;;
53833;SDS011;39735;51.432;5.482;2022-07-29T00:35:15;5.55;;;1.23;;
53833;SDS011;39735;51.432;5.482;2022-07-29T00:37:59;3.65;;;1.40;;
53833;SDS011;39735;51.432;5.482;2022-07-29T00:40:24;8.65;;;1.33;;
53833;SDS011;39735;51.432;5.482;2022-07-29T00:42:50;7.82;;;2.33;;
53833;SDS011;39735;51.432;5.482;2022-07-29T00:45:16;11.73;;;5.20;;
53833;SDS011;39735;51.432;5.482;2022-07-29T00:47:42;19.48;;;5.38;;
53833;SDS011;39735;51.432;5.482;2022-07-29T00:50:09;14.80;;;5.65;;
53833;SDS011;39735;51.432;5.482;2022-07-29T00:52:37;32.70;;;5.47;;
53833;SDS011;39735;51.432;5.482;2022-07-29T00:55:04;16.23;;;6.10;;
53833;SDS011;39735;51.432;5.482;2022-07-29T00:57:31;21.77;;;7.18;;
53833;SDS011;39735;51.432;5.482;2022-07-29T00:59:56;13.68;;;7.00;;
53833;SDS011;39735;51.432;5.482;2022-07-29T01:02:22;23.88;;;11.77;;
53833;SDS011;39735;51.432;5.482;2022-07-29T01:04:47;24.33;;;9.57;;
53833;SDS011;39735;51.432;5.482;2022-07-29T01:07:13;25.52;;;7.35;;
53833;SDS011;39735;51.432;5.482;2022-07-29T01:09:38;20.23;;;4.40;;
53833;SDS011;39735;51.432;5.482;2022-07-29T01:12:04;15.93;;;5.45;;
53833;SDS011;39735;51.432;5.482;2022-07-29T01:14:30;13.18;;;3.80;;
53833;SDS011;39735;51.432;5.482;2022-07-29T01:17:01;17.58;;;4.28;;
53833;SDS011;39735;51.432;5.482;2022-07-29T01:25:30;7.10;;;3.80;;
53833;SDS011;39735;51.432;5.482;2022-07-29T01:30:45;13.70;;;3.58;;
53833;SDS011;39735;51.432;5.482;2022-07-29T01:33:13;20.27;;;2.78;;
53833;SDS011;39735;51.432;5.482;2022-07-29T01:36:05;13.43;;;6.93;;
53833;SDS011;39735;51.432;5.482;2022-07-29T01:38:34;14.73;;;1.77;;
53833;SDS011;39735;51.432;5.482;2022-07-29T01:41:12;11.98;;;1.98;;
53833;SDS011;39735;51.432;5.482;2022-07-29T01:43:53;9.73;;;2.53;;
53833;SDS011;39735;51.432;5.482;2022-07-29T01:46:31;4.07;;;2.92;;
53833;SDS011;39735;51.432;5.482;2022-07-29T01:49:02;7.82;;;2.80;;
53833;SDS011;39735;51.432;5.482;2022-07-29T01:51:36;4.55;;;2.33;;
53833;SDS011;39735;51.432;5.482;2022-07-29T01:54:08;19.52;;;3.22;;
53833;SDS011;39735;51.432;5.482;2022-07-29T01:56:38;8.32;;;2.78;;
53833;SDS011;39735;51.432;5.482;2022-07-29T01:59:04;3.47;;;2.35;;
53833;SDS011;39735;51.432;5.482;2022-07-29T02:01:31;15.43;;;4.93;;
53833;SDS011;39735;51.432;5.482;2022-07-29T02:03:57;4.82;;;1.85;;
53833;SDS011;39735;51.432;5.482;2022-07-29T02:06:24;4.63;;;2.35;;
53833;SDS011;39735;51.432;5.482;2022-07-29T02:08:51;12.13;;;2.63;;
53833;SDS011;39735;51.432;5.482;2022-07-29T02:11:17;6.30;;;1.83;;
53833;SDS011;39735;51.432;5.482;2022-07-29T02:13:43;2.88;;;2.28;;
53833;SDS011;39735;51.432;5.482;2022-07-29T02:16:09;8.32;;;3.33;;
53833;SDS011;39735;51.432;5.482;2022-07-29T02:18:35;8.77;;;2.67;;
53833;SDS011;39735;51.432;5.482;2022-07-29T02:21:02;25.70;;;4.43;;
53833;SDS011;39735;51.432;5.482;2022-07-29T02:23:28;12.43;;;2.80;;
53833;SDS011;39735;51.432;5.482;2022-07-29T02:25:56;10.80;;;2.50;;
53833;SDS011;39735;51.432;5.482;2022-07-29T02:28:22;7.93;;;2.97;;
53833;SDS011;39735;51.432;5.482;2022-07-29T02:30:49;21.40;;;1.90;;
53833;SDS011;39735;51.432;5.482;2022-07-29T02:33:16;5.07;;;2.15;;
53833;SDS011;39735;51.432;5.482;2022-07-29T02:35:43;4.50;;;2.03;;
53833;SDS011;39735;51.432;5.482;2022-07-29T02:38:12;3.40;;;2.03;;
53833;SDS011;39735;51.432;5.482;2022-07-29T02:40:58;8.55;;;2.03;;
53833;SDS011;39735;51.432;5.482;2022-07-29T02:43:26;7.55;;;3.42;;
53833;SDS011;39735;51.432;5.482;2022-07-29T02:45:52;3.95;;;1.92;;
53833;SDS011;39735;51.432;5.482;2022-07-29T02:48:18;8.88;;;2.53;;
53833;SDS011;39735;51.432;5.482;2022-07-29T02:50:51;12.07;;;3.10;;
53833;SDS011;39735;51.432;5.482;2022-07-29T02:53:23;5.80;;;2.22;;
53833;SDS011;39735;51.432;5.482;2022-07-29T02:55:57;8.32;;;1.85;;
53833;SDS011;39735;51.432;5.482;2022-07-29T02:58:28;9.73;;;3.05;;
53833;SDS011;39735;51.432;5.482;2022-07-29T03:01:01;5.50;;;1.92;;
53833;SDS011;39735;51.432;5.482;2022-07-29T03:03:29;5.82;;;2.63;;
53833;SDS011;39735;51.432;5.482;2022-07-29T03:06:03;4.72;;;1.80;;
53833;SDS011;39735;51.432;5.482;2022-07-29T03:08:29;11.80;;;3.13;;
53833;SDS011;39735;51.432;5.482;2022-07-29T03:10:56;8.15;;;3.28;;
53833;SDS011;39735;51.432;5.482;2022-07-29T03:13:22;11.38;;;3.47;;
53833;SDS011;39735;51.432;5.482;2022-07-29T03:15:48;5.78;;;2.50;;
53833;SDS011;39735;51.432;5.482;2022-07-29T03:18:14;4.22;;;2.35;;
53833;SDS011;39735;51.432;5.482;2022-07-29T03:20:40;10.02;;;2.80;;
53833;SDS011;39735;51.432;5.482;2022-07-29T03:23:05;12.73;;;4.03;;
53833;SDS011;39735;51.432;5.482;2022-07-29T03:25:31;7.90;;;2.20;;
53833;SDS011;39735;51.432;5.482;2022-07-29T03:27:57;12.43;;;3.22;;
53833;SDS011;39735;51.432;5.482;2022-07-29T03:30:22;23.92;;;2.92;;
53833;SDS011;39735;51.432;5.482;2022-07-29T03:32:48;7.25;;;2.67;;
53833;SDS011;39735;51.432;5.482;2022-07-29T03:35:14;15.60;;;3.13;;
53833;SDS011;39735;51.432;5.482;2022-07-29T03:37:41;10.80;;;2.28;;
53833;SDS011;39735;51.432;5.482;2022-07-29T03:40:08;6.70;;;2.45;;
53833;SDS011;39735;51.432;5.482;2022-07-29T03:42:37;7.07;;;4.00;;
53833;SDS011;39735;51.432;5.482;2022-07-29T03:45:06;8.15;;;2.20;;
53833;SDS011;39735;51.432;5.482;2022-07-29T03:47:34;2.92;;;2.70;;
53833;SDS011;39735;51.432;5.482;2022-07-29T03:50:06;6.88;;;3.25;;
53833;SDS011;39735;51.432;5.482;2022-07-29T03:52:32;7.45;;;3.35;;
53833;SDS011;39735;51.432;5.482;2022-07-29T03:54:58;19.27;;;5.00;;
53833;SDS011;39735;51.432;5.482;2022-07-29T03:57:23;22.85;;;4.43;;
53833;SDS011;39735;51.432;5.482;2022-07-29T03:59:50;5.18;;;2.85;;
53833;SDS011;39735;51.432;5.482;2022-07-29T04:02:16;2.88;;;2.47;;
53833;SDS011;39735;51.432;5.482;2022-07-29T04:04:41;6.25;;;4.13;;
53833;SDS011;39735;51.432;5.482;2022-07-29T04:07:07;10.02;;;2.90;;
53833;SDS011;39735;51.432;5.482;2022-07-29T04:09:37;17.67;;;2.80;;
53833;SDS011;39735;51.432;5.482;2022-07-29T04:12:02;10.02;;;3.13;;
53833;SDS011;39735;51.432;5.482;2022-07-29T04:14:27;32.63;;;2.90;;
53833;SDS011;39735;51.432;5.482;2022-07-29T04:16:53;3.88;;;2.38;;
53833;SDS011;39735;51.432;5.482;2022-07-29T04:19:18;4.60;;;2.53;;
53833;SDS011;39735;51.432;5.482;2022-07-29T04:21:44;11.73;;;2.60;;
53833;SDS011;39735;51.432;5.482;2022-07-29T04:24:10;7.72;;;2.67;;
53833;SDS011;39735;51.432;5.482;2022-07-29T04:26:37;10.70;;;3.28;;
53833;SDS011;39735;51.432;5.482;2022-07-29T04:29:03;5.00;;;2.60;;
53833;SDS011;39735;51.432;5.482;2022-07-29T04:31:28;7.10;;;3.70;;
53833;SDS011;39735;51.432;5.482;2022-07-29T04:33:54;8.68;;;3.22;;
53833;SDS011;39735;51.432;5.482;2022-07-29T04:36:19;10.15;;;3.17;;
53833;SDS011;39735;51.432;5.482;2022-07-29T04:38:44;6.18;;;3.15;;
53833;SDS011;39735;51.432;5.482;2022-07-29T04:41:09;7.15;;;3.08;;
53833;SDS011;39735;51.432;5.482;2022-07-29T04:43:35;17.20;;;2.72;;
53833;SDS011;39735;51.432;5.482;2022-07-29T04:46:01;11.38;;;3.22;;
53833;SDS011;39735;51.432;5.482;2022-07-29T04:48:27;10.00;;;3.60;;
53833;SDS011;39735;51.432;5.482;2022-07-29T04:50:52;8.88;;;3.22;;
53833;SDS011;39735;51.432;5.482;2022-07-29T04:53:17;6.85;;;4.47;;
53833;SDS011;39735;51.432;5.482;2022-07-29T04:55:43;8.95;;;3.33;;
53833;SDS011;39735;51.432;5.482;2022-07-29T04:58:09;6.10;;;2.55;;
53833;SDS011;39735;51.432;5.482;2022-07-29T05:00:35;6.03;;;3.65;;
53833;SDS011;39735;51.432;5.482;2022-07-29T05:03:00;4.43;;;3.10;;
53833;SDS011;39735;51.432;5.482;2022-07-29T05:05:26;6.70;;;3.85;;
53833;SDS011;39735;51.432;5.482;2022-07-29T05:07:51;16.92;;;3.55;;
53833;SDS011;39735;51.432;5.482;2022-07-29T05:10:16;20.65;;;5.35;;
53833;SDS011;39735;51.432;5.482;2022-07-29T05:12:42;13.65;;;3.38;;
53833;SDS011;39735;51.432;5.482;2022-07-29T05:15:07;29.10;;;2.80;;
53833;SDS011;39735;51.432;5.482;2022-07-29T05:17:33;2.67;;;2.58;;
53833;SDS011;39735;51.432;5.482;2022-07-29T05:19:58;3.95;;;2.40;;
53833;SDS011;39735;51.432;5.482;2022-07-29T05:22:24;20.63;;;3.70;;
53833;SDS011;39735;51.432;5.482;2022-07-29T05:24:49;9.05;;;2.88;;
53833;SDS011;39735;51.432;5.482;2022-07-29T05:27:14;10.10;;;3.65;;
53833;SDS011;39735;51.432;5.482;2022-07-29T05:29:40;8.40;;;3.45;;
53833;SDS011;39735;51.432;5.482;2022-07-29T05:32:05;12.82;;;3.35;;
53833;SDS011;39735;51.432;5.482;2022-07-29T05:34:31;12.68;;;2.83;;
53833;SDS011;39735;51.432;5.482;2022-07-29T05:36:56;10.18;;;4.05;;
53833;SDS011;39735;51.432;5.482;2022-07-29T05:39:22;14.05;;;3.45;;
53833;SDS011;39735;51.432;5.482;2022-07-29T05:41:48;5.45;;;2.63;;
53833;SDS011;39735;51.432;5.482;2022-07-29T05:44:13;2.42;;;2.25;;
53833;SDS011;39735;51.432;5.482;2022-07-29T05:46:39;9.82;;;2.80;;
53833;SDS011;39735;51.432;5.482;2022-07-29T05:49:04;13.75;;;3.30;;
53833;SDS011;39735;51.432;5.482;2022-07-29T05:51:31;9.13;;;3.90;;
53833;SDS011;39735;51.432;5.482;2022-07-29T05:53:57;16.58;;;3.25;;
53833;SDS011;39735;51.432;5.482;2022-07-29T05:56:23;8.07;;;3.05;;
53833;SDS011;39735;51.432;5.482;2022-07-29T05:58:49;17.05;;;3.72;;
53833;SDS011;39735;51.432;5.482;2022-07-29T06:01:14;10.07;;;3.45;;
53833;SDS011;39735;51.432;5.482;2022-07-29T06:03:39;12.20;;;3.97;;
53833;SDS011;39735;51.432;5.482;2022-07-29T06:06:06;8.55;;;3.55;;
53833;SDS011;39735;51.432;5.482;2022-07-29T06:08:32;18.13;;;6.43;;
53833;SDS011;39735;51.432;5.482;2022-07-29T06:10:58;5.55;;;3.17;;
53833;SDS011;39735;51.432;5.482;2022-07-29T06:13:24;41.88;;;4.15;;
53833;SDS011;39735;51.432;5.482;2022-07-29T06:15:50;22.80;;;3.95;;
53833;SDS011;39735;51.432;5.482;2022-07-29T06:18:15;10.52;;;3.65;;
53833;SDS011;39735;51.432;5.482;2022-07-29T06:20:40;8.05;;;3.20;;
53833;SDS011;39735;51.432;5.482;2022-07-29T06:23:06;7.63;;;3.58;;
53833;SDS011;39735;51.432;5.482;2022-07-29T06:25:31;17.25;;;5.65;;
53833;SDS011;39735;51.432;5.482;2022-07-29T06:28:01;6.05;;;2.72;;
53833;SDS011;39735;51.432;5.482;2022-07-29T06:30:27;9.30;;;4.70;;
53833;SDS011;39735;51.432;5.482;2022-07-29T06:32:53;10.77;;;3.95;;
53833;SDS011;39735;51.432;5.482;2022-07-29T06:35:19;20.83;;;4.95;;
53833;SDS011;39735;51.432;5.482;2022-07-29T06:37:44;7.88;;;4.32;;
53833;SDS011;39735;51.432;5.482;2022-07-29T06:40:10;14.32;;;6.15;;
53833;SDS011;39735;51.432;5.482;2022-07-29T06:42:54;13.23;;;4.15;;
53833;SDS011;39735;51.432;5.482;2022-07-29T06:45:20;21.05;;;5.18;;
53833;SDS011;39735;51.432;5.482;2022-07-29T06:47:45;7.32;;;4.80;;
53833;SDS011;39735;51.432;5.482;2022-07-29T06:50:11;14.65;;;4.28;;
53833;SDS011;39735;51.432;5.482;2022-07-29T06:52:38;9.55;;;4.57;;
53833;SDS011;39735;51.432;5.482;2022-07-29T06:55:04;16.67;;;3.78;;
53833;SDS011;39735;51.432;5.482;2022-07-29T06:57:29;29.90;;;4.35;;
53833;SDS011;39735;51.432;5.482;2022-07-29T06:59:58;10.63;;;5.13;;
53833;SDS011;39735;51.432;5.482;2022-07-29T07:02:23;25.17;;;4.60;;
53833;SDS011;39735;51.432;5.482;2022-07-29T07:04:48;40.55;;;4.50;;
53833;SDS011;39735;51.432;5.482;2022-07-29T07:07:14;5.20;;;4.55;;
53833;SDS011;39735;51.432;5.482;2022-07-29T07:09:41;21.35;;;6.45;;
53833;SDS011;39735;51.432;5.482;2022-07-29T07:12:07;6.03;;;4.75;;
53833;SDS011;39735;51.432;5.482;2022-07-29T07:14:32;11.52;;;4.35;;
53833;SDS011;39735;51.432;5.482;2022-07-29T07:16:58;4.97;;;4.47;;
53833;SDS011;39735;51.432;5.482;2022-07-29T07:19:25;8.40;;;3.40;;
53833;SDS011;39735;51.432;5.482;2022-07-29T07:21:50;8.00;;;3.45;;
53833;SDS011;39735;51.432;5.482;2022-07-29T07:24:16;5.00;;;3.20;;
53833;SDS011;39735;51.432;5.482;2022-07-29T07:26:41;5.03;;;4.32;;
53833;SDS011;39735;51.432;5.482;2022-07-29T07:29:06;8.80;;;4.22;;
53833;SDS011;39735;51.432;5.482;2022-07-29T07:31:32;37.65;;;8.25;;
53833;SDS011;39735;51.432;5.482;2022-07-29T07:33:57;25.08;;;8.10;;
53833;SDS011;39735;51.432;5.482;2022-07-29T07:36:23;10.98;;;5.13;;
53833;SDS011;39735;51.432;5.482;2022-07-29T07:38:48;7.47;;;4.43;;
53833;SDS011;39735;51.432;5.482;2022-07-29T07:41:14;21.85;;;4.68;;
53833;SDS011;39735;51.432;5.482;2022-07-29T07:43:39;17.52;;;4.53;;
53833;SDS011;39735;51.432;5.482;2022-07-29T07:46:05;12.68;;;4.40;;
53833;SDS011;39735;51.432;5.482;2022-07-29T07:48:30;17.85;;;4.10;;
53833;SDS011;39735;51.432;5.482;2022-07-29T07:50:55;14.85;;;4.20;;
53833;SDS011;39735;51.432;5.482;2022-07-29T07:53:21;15.23;;;5.07;;
53833;SDS011;39735;51.432;5.482;2022-07-29T07:55:47;9.90;;;4.13;;
53833;SDS011;39735;51.432;5.482;2022-07-29T07:58:12;11.60;;;4.32;;
53833;SDS011;39735;51.432;5.482;2022-07-29T08:00:37;19.27;;;5.78;;
53833;SDS011;39735;51.432;5.482;2022-07-29T08:03:03;23.73;;;3.90;;
53833;SDS011;39735;51.432;5.482;2022-07-29T08:05:29;34.28;;;7.90;;
53833;SDS011;39735;51.432;5.482;2022-07-29T08:07:54;21.60;;;5.38;;
53833;SDS011;39735;51.432;5.482;2022-07-29T08:10:19;10.02;;;4.10;;
53833;SDS011;39735;51.432;5.482;2022-07-29T08:13:07;12.63;;;3.88;;
53833;SDS011;39735;51.432;5.482;2022-07-29T08:15:34;6.22;;;4.07;;
53833;SDS011;39735;51.432;5.482;2022-07-29T08:18:00;12.75;;;4.15;;
53833;SDS011;39735;51.432;5.482;2022-07-29T08:20:25;6.60;;;4.07;;
53833;SDS011;39735;51.432;5.482;2022-07-29T08:22:51;20.25;;;4.22;;
53833;SDS011;39735;51.432;5.482;2022-07-29T08:25:17;13.38;;;5.00;;
53833;SDS011;39735;51.432;5.482;2022-07-29T08:27:45;12.43;;;4.55;;
53833;SDS011;39735;51.432;5.482;2022-07-29T08:30:11;15.68;;;5.75;;
53833;SDS011;39735;51.432;5.482;2022-07-29T08:32:37;15.65;;;6.47;;
53833;SDS011;39735;51.432;5.482;2022-07-29T08:35:03;13.02;;;4.78;;
53833;SDS011;39735;51.432;5.482;2022-07-29T08:37:29;36.85;;;7.40;;
53833;SDS011;39735;51.432;5.482;2022-07-29T08:39:54;36.00;;;4.95;;
53833;SDS011;39735;51.432;5.482;2022-07-29T08:42:19;23.77;;;6.30;;
53833;SDS011;39735;51.432;5.482;2022-07-29T08:44:45;9.05;;;3.38;;
53833;SDS011;39735;51.432;5.482;2022-07-29T08:47:10;18.25;;;3.53;;
53833;SDS011;39735;51.432;5.482;2022-07-29T08:49:39;9.43;;;3.60;;
53833;SDS011;39735;51.432;5.482;2022-07-29T08:52:04;11.68;;;3.75;;
53833;SDS011;39735;51.432;5.482;2022-07-29T08:54:30;9.40;;;3.13;;
53833;SDS011;39735;51.432;5.482;2022-07-29T08:56:56;7.80;;;3.17;;
53833;SDS011;39735;51.432;5.482;2022-07-29T08:59:22;19.30;;;4.35;;
53833;SDS011;39735;51.432;5.482;2022-07-29T09:01:51;17.27;;;4.75;;
53833;SDS011;39735;51.432;5.482;2022-07-29T09:04:17;4.97;;;3.40;;
53833;SDS011;39735;51.432;5.482;2022-07-29T09:06:45;15.07;;;4.35;;
53833;SDS011;39735;51.432;5.482;2022-07-29T09:09:11;14.23;;;3.63;;
53833;SDS011;39735;51.432;5.482;2022-07-29T09:11:38;10.57;;;3.35;;
53833;SDS011;39735;51.432;5.482;2022-07-29T09:14:04;12.20;;;3.67;;
53833;SDS011;39735;51.432;5.482;2022-07-29T09:16:53;18.30;;;4.70;;
53833;SDS011;39735;51.432;5.482;2022-07-29T09:19:24;10.05;;;3.70;;
53833;SDS011;39735;51.432;5.482;2022-07-29T09:21:58;9.38;;;4.00;;
53833;SDS011;39735;51.432;5.482;2022-07-29T09:26:59;6.22;;;3.95;;
53833;SDS011;39735;51.432;5.482;2022-07-29T09:29:24;6.47;;;3.85;;
53833;SDS011;39735;51.432;5.482;2022-07-29T09:31:51;24.42;;;6.30;;
53833;SDS011;39735;51.432;5.482;2022-07-29T09:34:21;29.92;;;3.92;;
53833;SDS011;39735;51.432;5.482;2022-07-29T09:36:51;15.77;;;4.30;;
53833;SDS011;39735;51.432;5.482;2022-07-29T09:39:36;10.73;;;4.32;;
53833;SDS011;39735;51.432;5.482;2022-07-29T09:42:05;13.95;;;6.32;;
53833;SDS011;39735;51.432;5.482;2022-07-29T09:44:44;9.55;;;3.75;;
53833;SDS011;39735;51.432;5.482;2022-07-29T09:47:13;24.80;;;4.50;;
53833;SDS011;39735;51.432;5.482;2022-07-29T09:49:54;21.15;;;4.53;;
53833;SDS011;39735;51.432;5.482;2022-07-29T09:52:27;20.27;;;7.03;;
53833;SDS011;39735;51.432;5.482;2022-07-29T09:55:03;20.67;;;3.97;;
53833;SDS011;39735;51.432;5.482;2022-07-29T09:57:30;12.75;;;3.80;;
53833;SDS011;39735;51.432;5.482;2022-07-29T10:00:06;10.57;;;3.47;;
53833;SDS011;39735;51.432;5.482;2022-07-29T10:02:36;16.88;;;3.42;;
53833;SDS011;39735;51.432;5.482;2022-07-29T10:05:04;16.58;;;4.78;;
53833;SDS011;39735;51.432;5.482;2022-07-29T10:07:50;14.07;;;5.13;;
53833;SDS011;39735;51.432;5.482;2022-07-29T10:10:27;8.00;;;3.78;;
53833;SDS011;39735;51.432;5.482;2022-07-29T10:12:54;15.88;;;4.22;;
53833;SDS011;39735;51.432;5.482;2022-07-29T10:15:22;7.18;;;3.45;;
53833;SDS011;39735;51.432;5.482;2022-07-29T10:17:50;11.18;;;3.45;;
53833;SDS011;39735;51.432;5.482;2022-07-29T10:20:16;30.85;;;3.03;;
53833;SDS011;39735;51.432;5.482;2022-07-29T10:22:42;13.20;;;4.43;;
53833;SDS011;39735;51.432;5.482;2022-07-29T10:25:09;12.48;;;3.90;;
53833;SDS011;39735;51.432;5.482;2022-07-29T10:27:35;6.57;;;3.65;;
53833;SDS011;39735;51.432;5.482;2022-07-29T10:30:02;6.90;;;3.40;;
53833;SDS011;39735;51.432;5.482;2022-07-29T10:32:54;5.93;;;3.38;;
53833;SDS011;39735;51.432;5.482;2022-07-29T10:44:06;11.98;;;3.70;;
53833;SDS011;39735;51.432;5.482;2022-07-29T10:46:34;12.55;;;3.28;;
53833;SDS011;39735;51.432;5.482;2022-07-29T10:49:14;5.40;;;2.85;;
53833;SDS011;39735;51.432;5.482;2022-07-29T10:54:15;6.63;;;2.80;;
53833;SDS011;39735;51.432;5.482;2022-07-29T10:56:43;6.88;;;3.85;;
53833;SDS011;39735;51.432;5.482;2022-07-29T11:01:50;12.85;;;3.42;;
53833;SDS011;39735;51.432;5.482;2022-07-29T11:04:16;9.07;;;2.80;;
53833;SDS011;39735;51.432;5.482;2022-07-29T11:07:10;11.80;;;3.67;;
53833;SDS011;39735;51.432;5.482;2022-07-29T11:09:36;11.93;;;4.18;;
53833;SDS011;39735;51.432;5.482;2022-07-29T11:12:01;7.28;;;3.20;;
53833;SDS011;39735;51.432;5.482;2022-07-29T11:17:25;9.77;;;4.32;;
53833;SDS011;39735;51.432;5.482;2022-07-29T11:19:50;18.33;;;5.95;;
53833;SDS011;39735;51.432;5.482;2022-07-29T11:22:35;10.38;;;4.10;;
53833;SDS011;39735;51.432;5.482;2022-07-29T11:27:39;4.47;;;3.58;;
53833;SDS011;39735;51.432;5.482;2022-07-29T11:30:05;4.53;;;3.10;;
53833;SDS011;39735;51.432;5.482;2022-07-29T11:32:38;8.30;;;4.07;;
53833;SDS011;39735;51.432;5.482;2022-07-29T11:35:23;14.45;;;3.65;;
53833;SDS011;39735;51.432;5.482;2022-07-29T11:38:34;11.63;;;3.28;;
53833;SDS011;39735;51.432;5.482;2022-07-29T11:41:18;14.38;;;2.80;;
53833;SDS011;39735;51.432;5.482;2022-07-29T11:43:57;14.00;;;7.82;;
53833;SDS011;39735;51.432;5.482;2022-07-29T11:49:07;13.88;;;2.55;;
53833;SDS011;39735;51.432;5.482;2022-07-29T11:51:34;7.22;;;2.95;;
53833;SDS011;39735;51.432;5.482;2022-07-29T11:54:01;13.50;;;4.10;;
53833;SDS011;39735;51.432;5.482;2022-07-29T11:56:27;7.70;;;3.78;;
53833;SDS011;39735;51.432;5.482;2022-07-29T11:59:03;3.83;;;3.00;;
53833;SDS011;39735;51.432;5.482;2022-07-29T12:01:29;4.90;;;3.03;;
53833;SDS011;39735;51.432;5.482;2022-07-29T12:04:02;11.55;;;3.30;;
53833;SDS011;39735;51.432;5.482;2022-07-29T12:06:29;8.52;;;3.53;;
53833;SDS011;39735;51.432;5.482;2022-07-29T12:08:54;33.45;;;4.45;;
53833;SDS011;39735;51.432;5.482;2022-07-29T12:11:20;34.20;;;3.78;;
53833;SDS011;39735;51.432;5.482;2022-07-29T12:13:45;18.02;;;3.58;;
53833;SDS011;39735;51.432;5.482;2022-07-29T12:16:11;15.25;;;4.18;;
53833;SDS011;39735;51.432;5.482;2022-07-29T12:18:36;9.75;;;3.45;;
53833;SDS011;39735;51.432;5.482;2022-07-29T12:21:02;20.08;;;3.65;;
53833;SDS011;39735;51.432;5.482;2022-07-29T12:23:31;26.27;;;3.10;;
53833;SDS011;39735;51.432;5.482;2022-07-29T12:25:57;22.00;;;2.50;;
53833;SDS011;39735;51.432;5.482;2022-07-29T12:28:23;18.52;;;2.17;;
53833;SDS011;39735;51.432;5.482;2022-07-29T12:30:49;7.82;;;2.50;;
53833;SDS011;39735;51.432;5.482;2022-07-29T12:35:41;8.38;;;2.38;;
53833;SDS011;39735;51.432;5.482;2022-07-29T12:38:09;8.95;;;2.33;;
53833;SDS011;39735;51.432;5.482;2022-07-29T12:40:35;6.80;;;2.00;;
53833;SDS011;39735;51.432;5.482;2022-07-29T12:43:04;4.03;;;1.25;;
53833;SDS011;39735;51.432;5.482;2022-07-29T12:45:31;11.68;;;1.90;;
53833;SDS011;39735;51.432;5.482;2022-07-29T12:47:56;9.07;;;1.23;;
53833;SDS011;39735;51.432;5.482;2022-07-29T12:50:21;21.13;;;1.42;;
53833;SDS011;39735;51.432;5.482;2022-07-29T12:52:47;8.93;;;1.88;;
53833;SDS011;39735;51.432;5.482;2022-07-29T12:55:13;3.08;;;1.48;;
53833;SDS011;39735;51.432;5.482;2022-07-29T12:57:50;11.13;;;1.70;;
53833;SDS011;39735;51.432;5.482;2022-07-29T13:00:21;12.35;;;2.50;;
53833;SDS011;39735;51.432;5.482;2022-07-29T13:02:54;17.75;;;2.28;;
53833;SDS011;39735;51.432;5.482;2022-07-29T13:05:20;2.80;;;2.05;;
53833;SDS011;39735;51.432;5.482;2022-07-29T13:07:46;7.95;;;1.98;;
53833;SDS011;39735;51.432;5.482;2022-07-29T13:10:21;3.75;;;1.67;;
53833;SDS011;39735;51.432;5.482;2022-07-29T13:13:09;13.90;;;2.10;;
53833;SDS011;39735;51.432;5.482;2022-07-29T13:15:40;6.72;;;2.30;;
53833;SDS011;39735;51.432;5.482;2022-07-29T13:18:28;4.35;;;2.25;;
53833;SDS011;39735;51.432;5.482;2022-07-29T13:21:09;14.70;;;2.38;;
53833;SDS011;39735;51.432;5.482;2022-07-29T13:23:38;3.15;;;1.50;;
53833;SDS011;39735;51.432;5.482;2022-07-29T13:26:07;7.75;;;1.88;;
53833;SDS011;39735;51.432;5.482;2022-07-29T13:28:33;6.72;;;2.38;;
53833;SDS011;39735;51.432;5.482;2022-07-29T13:30:59;7.43;;;1.70;;
53833;SDS011;39735;51.432;5.482;2022-07-29T13:33:24;8.18;;;2.60;;
53833;SDS011;39735;51.432;5.482;2022-07-29T13:35:50;2.43;;;1.27;;
53833;SDS011;39735;51.432;5.482;2022-07-29T13:38:15;12.52;;;3.22;;
53833;SDS011;39735;51.432;5.482;2022-07-29T13:40:41;5.05;;;2.05;;
53833;SDS011;39735;51.432;5.482;2022-07-29T13:43:10;11.40;;;1.75;;
53833;SDS011;39735;51.432;5.482;2022-07-29T13:45:35;11.57;;;2.55;;
53833;SDS011;39735;51.432;5.482;2022-07-29T13:48:01;8.57;;;2.47;;
53833;SDS011;39735;51.432;5.482;2022-07-29T13:50:26;15.68;;;2.08;;
53833;SDS011;39735;51.432;5.482;2022-07-29T13:52:52;9.98;;;2.22;;
53833;SDS011;39735;51.432;5.482;2022-07-29T13:55:17;4.50;;;3.83;;
53833;SDS011;39735;51.432;5.482;2022-07-29T13:57:43;3.90;;;1.35;;
53833;SDS011;39735;51.432;5.482;2022-07-29T14:00:09;26.90;;;2.53;;
53833;SDS011;39735;51.432;5.482;2022-07-29T14:02:35;6.72;;;2.08;;
53833;SDS011;39735;51.432;5.482;2022-07-29T14:05:01;4.68;;;2.13;;
53833;SDS011;39735;51.432;5.482;2022-07-29T14:07:26;6.70;;;2.03;;
53833;SDS011;39735;51.432;5.482;2022-07-29T14:09:51;13.65;;;2.28;;
53833;SDS011;39735;51.432;5.482;2022-07-29T14:12:17;2.00;;;1.77;;
53833;SDS011;39735;51.432;5.482;2022-07-29T14:14:42;1.48;;;1.40;;
53833;SDS011;39735;51.432;5.482;2022-07-29T14:17:08;16.75;;;2.90;;
53833;SDS011;39735;51.432;5.482;2022-07-29T14:19:34;7.38;;;1.67;;
53833;SDS011;39735;51.432;5.482;2022-07-29T14:22:04;14.55;;;2.40;;
53833;SDS011;39735;51.432;5.482;2022-07-29T14:24:31;13.52;;;2.47;;
53833;SDS011;39735;51.432;5.482;2022-07-29T14:26:57;9.38;;;1.98;;
53833;SDS011;39735;51.432;5.482;2022-07-29T14:29:22;9.13;;;2.67;;
53833;SDS011;39735;51.432;5.482;2022-07-29T14:31:48;19.85;;;3.60;;
53833;SDS011;39735;51.432;5.482;2022-07-29T14:34:13;26.20;;;2.38;;
53833;SDS011;39735;51.432;5.482;2022-07-29T14:36:40;13.30;;;1.92;;
53833;SDS011;39735;51.432;5.482;2022-07-29T14:39:06;1.88;;;1.73;;
53833;SDS011;39735;51.432;5.482;2022-07-29T14:41:31;20.30;;;3.55;;
53833;SDS011;39735;51.432;5.482;2022-07-29T14:43:56;16.40;;;3.22;;
53833;SDS011;39735;51.432;5.482;2022-07-29T14:46:25;9.32;;;2.38;;
53833;SDS011;39735;51.432;5.482;2022-07-29T14:48:51;12.60;;;2.17;;
53833;SDS011;39735;51.432;5.482;2022-07-29T14:51:16;29.88;;;2.10;;
53833;SDS011;39735;51.432;5.482;2022-07-29T14:53:42;9.55;;;1.70;;
53833;SDS011;39735;51.432;5.482;2022-07-29T14:56:08;5.60;;;1.90;;
53833;SDS011;39735;51.432;5.482;2022-07-29T14:58:33;5.30;;;1.65;;
53833;SDS011;39735;51.432;5.482;2022-07-29T15:00:58;12.07;;;1.67;;
53833;SDS011;39735;51.432;5.482;2022-07-29T15:03:24;9.85;;;1.55;;
53833;SDS011;39735;51.432;5.482;2022-07-29T15:05:49;9.63;;;1.95;;
53833;SDS011;39735;51.432;5.482;2022-07-29T15:08:15;7.82;;;1.55;;
53833;SDS011;39735;51.432;5.482;2022-07-29T15:10:40;8.20;;;2.35;;
53833;SDS011;39735;51.432;5.482;2022-07-29T15:13:05;2.88;;;1.23;;
53833;SDS011;39735;51.432;5.482;2022-07-29T15:15:31;8.98;;;1.88;;
53833;SDS011;39735;51.432;5.482;2022-07-29T15:17:56;5.10;;;1.65;;
53833;SDS011;39735;51.432;5.482;2022-07-29T15:20:21;14.73;;;2.08;;